Time;durP1;ratioP1;P1;durP2;ratioP2;P2;SDS_P1;SDS_P2;PMS_P1;PMS_P2;Temp;Humidity;BMP_temperature;BMP_pressure;BME280_temperature;BME280_humidity;BME280_pressure;Samples;Min_cycle;Max_cycle;Signal;HPM_P1;HPM_P2
2022/04/26 03:36:30;;;;;;;29.57;24.27;;;;;;;8.16;38.46;100300.03;10400231;28;20532;-86
2022/04/26 03:41:34;;;;;;;31.73;24.97;;;;;;;8.17;38.35;100307.38;10386822;28;20217;-85
2022/04/26 03:46:36;;;;;;;33.17;24.57;;;;;;;7.88;39.12;100312.34;10372636;28;20263;-86
2022/04/26 03:51:38;;;;;;;31.83;24.10;;;;;;;8.15;38.87;100309.75;10383566;28;20642;-85
2022/04/26 03:56:40;;;;;;;33.13;23.63;;;;;;;8.08;37.99;100318.13;10377419;28;20606;-85
2022/04/26 04:01:42;;;;;;;28.97;23.40;;;;;;;8.41;37.75;100320.50;10396174;28;20221;-87
2022/04/26 04:06:45;;;;;;;25.33;19.47;;;;;;;8.03;37.60;100313.56;10398268;28;20752;-88
2022/04/26 04:11:48;;;;;;;25.97;19.97;;;;;;;7.61;39.10;100316.13;10385164;28;20246;-88
2022/04/26 04:16:50;;;;;;;24.40;19.17;;;;;;;7.43;38.95;100323.38;10368892;28;20224;-88
2022/04/26 04:21:53;;;;;;;27.13;19.23;;;;;;;8.01;38.02;100327.28;10362524;28;20322;-89
2022/04/26 04:26:55;;;;;;;24.17;17.63;;;;;;;7.67;37.67;100331.72;10382094;28;20200;-88
2022/04/26 04:31:57;;;;;;;25.17;18.77;;;;;;;7.93;37.51;100337.63;10385340;28;20220;-88
2022/04/26 04:37:00;;;;;;;20.70;16.20;;;;;;;7.77;37.12;100342.50;10396358;28;20196;-88
2022/04/26 04:42:02;;;;;;;18.50;14.83;;;;;;;7.64;37.27;100338.13;10380965;28;20224;-86
2022/04/26 04:47:04;;;;;;;24.40;16.20;;;;;;;7.89;37.28;100353.75;10383591;28;20196;-88
2022/04/26 04:52:07;;;;;;;20.23;15.13;;;;;;;7.63;37.76;100360.00;10402918;28;20250;-88
2022/04/26 04:57:09;;;;;;;21.83;14.13;;;;;;;6.12;39.31;100379.84;10380462;28;20192;-87
2022/04/26 05:02:12;;;;;;;19.80;12.37;;;;;;;6.97;38.48;100376.78;10366443;28;20208;-89
2022/04/26 05:07:14;;;;;;;14.90;11.90;;;;;;;7.50;37.32;100380.31;10384769;28;20723;-89
2022/04/26 05:12:18;;;;;;;16.23;13.27;;;;;;;7.59;36.75;100383.84;10389658;28;20247;-89
2022/04/26 05:17:21;;;;;;;15.47;12.07;;;;;;;7.36;37.72;100396.97;10333540;28;20237;-88
2022/04/26 05:22:23;;;;;;;13.67;11.00;;;;;;;6.63;37.95;100406.56;10330696;28;20232;-87
2022/04/26 05:27:34;;;;;;;12.47;11.03;;;;;;;7.64;36.56;100404.25;10351216;28;20261;-88
2022/04/26 05:32:36;;;;;;;14.70;10.20;;;;;;;6.45;38.07;100410.81;10340723;28;20197;-89
2022/04/26 05:37:38;;;;;;;13.93;9.43;;;;;;;6.99;37.27;100411.28;10369152;28;20672;-88
2022/04/26 05:42:40;;;;;;;13.97;8.87;;;;;;;7.07;36.17;100418.03;10386902;28;20318;-88
2022/04/26 05:47:44;;;;;;;14.93;9.57;;;;;;;7.23;36.34;100421.72;10381940;28;20201;-87
2022/04/26 05:52:46;;;;;;;11.27;9.43;;;;;;;6.92;36.51;100423.28;10379758;28;20229;-89
2022/04/26 05:57:48;;;;;;;12.50;9.27;;;;;;;6.01;37.73;100426.81;10361962;28;20224;-88
2022/04/26 06:02:50;;;;;;;13.93;9.73;;;;;;;6.89;36.56;100418.31;10393854;28;20218;-87
2022/04/26 06:07:54;;;;;;;12.80;9.60;;;;;;;7.47;35.70;100423.66;10407714;28;20247;-88
2022/04/26 06:12:56;;;;;;;16.23;9.50;;;;;;;6.89;37.08;100434.50;10394673;28;20189;-88
2022/04/26 06:17:59;;;;;;;14.90;9.67;;;;;;;7.30;36.09;100419.94;10396189;28;20711;-88
2022/04/26 06:23:02;;;;;;;13.70;9.70;;;;;;;7.01;37.03;100431.63;10377769;28;20295;-87
2022/04/26 06:28:06;;;;;;;14.13;10.47;;;;;;;7.46;36.58;100433.34;10376883;28;20197;-88
2022/04/26 06:33:08;;;;;;;14.70;11.17;;;;;;;7.00;37.23;100438.47;10376478;28;20189;-88
2022/04/26 06:38:17;;;;;;;13.23;11.00;;;;;;;7.53;36.00;100437.19;10361190;28;20197;-87
2022/04/26 06:43:20;;;;;;;15.73;11.33;;;;;;;7.01;36.90;100448.63;10359108;28;20225;-88
2022/04/26 06:48:23;;;;;;;13.33;9.97;;;;;;;5.61;38.89;100452.91;10374148;28;20197;-88
2022/04/26 06:53:25;;;;;;;15.07;11.03;;;;;;;7.20;36.99;100445.97;10390664;28;20324;-87
2022/04/26 06:58:30;;;;;;;15.70;11.13;;;;;;;6.85;36.89;100453.41;10358258;28;20585;-87
2022/04/26 07:03:32;;;;;;;16.37;10.53;;;;;;;7.01;37.58;100451.47;10375105;28;20248;-86
2022/04/26 07:08:34;;;;;;;18.07;10.33;;;;;;;6.48;37.98;100459.13;10372610;28;20193;-87
2022/04/26 07:13:37;;;;;;;19.20;12.53;;;;;;;7.84;35.67;100446.94;10389215;28;20193;-86
2022/04/26 07:18:39;;;;;;;20.60;13.67;;;;;;;7.09;37.70;100461.03;10398079;28;20667;-88
2022/04/26 07:23:47;;;;;;;19.40;13.77;;;;;;;7.47;37.06;100454.88;10414404;28;20266;-86
2022/04/26 07:28:49;;;;;;;18.93;13.60;;;;;;;7.49;36.94;100453.28;10397238;28;20266;-87
2022/04/26 07:39:14;;;;;;;21.53;13.80;;;;;;;8.39;35.57;100462.97;10413147;28;20593;-86
2022/04/26 07:44:17;;;;;;;19.40;13.93;;;;;;;8.44;35.79;100465.56;10382275;28;20283;-86
2022/04/26 07:49:20;;;;;;;21.87;16.63;;;;;;;8.21;36.07;100473.09;10360457;28;20235;-86
2022/04/26 07:54:23;;;;;;;21.23;15.63;;;;;;;8.72;35.56;100482.47;10395588;28;20185;-87
2022/04/26 07:59:28;;;;;;;20.97;15.20;;;;;;;8.26;35.94;100478.50;10338014;28;20594;-87
2022/04/26 08:04:31;;;;;;;24.47;15.10;;;;;;;9.24;34.77;100476.34;10368565;28;20407;-88
2022/04/26 08:09:36;;;;;;;19.40;15.17;;;;;;;9.10;35.08;100480.91;10357290;28;20201;-88
2022/04/26 08:14:38;;;;;;;21.47;17.27;;;;;;;9.93;34.77;100485.91;10371101;28;20189;-87
2022/04/26 08:19:44;;;;;;;23.50;16.40;;;;;;;9.57;35.14;100489.22;10370422;28;20294;-87
2022/04/26 08:30:07;;;;;;;23.17;16.30;;;;;;;9.23;34.70;100506.00;10373325;28;20274;-85
2022/04/26 08:35:12;;;;;;;18.50;15.50;;;;;;;8.76;35.56;100511.03;10374823;28;20217;-86
2022/04/26 08:40:15;;;;;;;23.20;16.77;;;;;;;10.20;33.93;100505.94;10352514;28;20244;-86
2022/04/26 08:45:20;;;;;;;19.63;16.57;;;;;;;9.79;33.98;100511.25;10360879;28;20245;-85
2022/04/26 08:55:46;;;;;;;18.57;14.07;;;;;;;10.23;33.04;100528.78;10373074;28;20189;-85
2022/04/26 09:01:19;;;;;;;19.50;16.60;;;;;;;10.18;33.70;100540.53;10374750;28;20224;-86
2022/04/26 09:06:39;;;;;;;26.73;19.90;;;;;;;9.85;35.32;100545.94;10396968;28;20288;-86
2022/04/26 09:11:48;;;;;;;19.10;16.53;;;;;;;9.61;34.39;100558.50;10397376;28;20207;-86
2022/04/26 09:17:11;;;;;;;23.00;16.83;;;;;;;9.47;34.32;100555.34;10377605;28;20263;-86
2022/04/26 09:22:19;;;;;;;23.83;16.90;;;;;;;10.06;34.37;100558.59;10373885;28;20224;-86
2022/04/26 09:27:22;;;;;;;18.57;14.53;;;;;;;9.16;35.23;100574.16;10383027;28;20221;-86
2022/04/26 09:32:24;;;;;;;17.37;13.93;;;;;;;10.01;34.23;100567.47;10359147;28;20247;-86
2022/04/26 09:37:29;;;;;;;19.53;14.33;;;;;;;11.25;32.29;100557.34;10395927;28;20220;-86
2022/04/26 09:42:33;;;;;;;16.50;13.87;;;;;;;10.39;32.77;100560.88;10340859;28;20201;-86
2022/04/26 09:47:40;;;;;;;18.93;14.83;;;;;;;10.98;32.54;100564.31;10344871;28;20256;-87
2022/04/26 09:52:43;;;;;;;21.03;15.10;;;;;;;9.52;34.96;100575.00;10352483;28;20209;-86
2022/04/26 09:57:46;;;;;;;19.10;14.13;;;;;;;11.36;32.18;100566.91;10375126;28;20291;-86
2022/04/26 10:02:55;;;;;;;18.77;14.93;;;;;;;11.46;32.17;100574.03;10364129;28;20560;-86
2022/04/26 10:07:58;;;;;;;19.27;13.65;;;;;;;11.68;31.27;100580.81;10380959;28;20267;-86
2022/04/26 10:18:26;;;;;;;16.97;13.57;;;;;;;10.54;33.15;100576.19;10383952;28;20270;-86
2022/04/26 10:23:28;;;;;;;19.47;14.27;;;;;;;11.37;32.26;100585.72;10366444;28;20575;-86
2022/04/26 10:28:32;;;;;;;18.27;16.30;;;;;;;10.69;32.85;100585.84;10350816;28;20296;-84
2022/04/26 10:33:34;;;;;;;16.93;15.10;;;;;;;10.62;33.66;100580.81;10392552;28;20667;-87
2022/04/26 10:38:37;;;;;;;19.00;14.23;;;;;;;12.43;30.53;100579.66;10335033;28;20261;-87
2022/04/26 10:43:42;;;;;;;16.80;15.00;;;;;;;11.33;31.93;100593.41;10382992;28;20299;-87
2022/04/26 10:48:44;;;;;;;17.37;14.30;;;;;;;10.91;32.71;100590.72;10350093;28;20205;-85
2022/04/26 10:53:46;;;;;;;17.67;14.43;;;;;;;10.98;32.51;100598.56;10355901;28;20541;-86
2022/04/26 10:58:52;;;;;;;20.57;16.17;;;;;;;10.96;32.87;100595.28;10310468;28;20206;-86
2022/04/26 11:03:55;;;;;;;18.77;16.30;;;;;;;11.21;31.46;100596.47;10314937;28;20271;-86
2022/04/26 11:09:24;;;;;;;16.30;14.60;;;;;;;12.20;31.46;100592.09;10328609;28;20296;-87
2022/04/26 11:14:28;;;;;;;18.07;15.23;;;;;;;11.81;31.52;100596.50;10332550;28;20197;-87
2022/04/26 11:19:32;;;;;;;18.63;15.33;;;;;;;12.70;30.11;100586.88;10347970;28;20221;-86
2022/04/26 11:29:57;;;;;;;17.27;13.93;;;;;;;12.12;29.00;100596.09;10339703;28;20262;-86
2022/04/26 11:35:00;;;;;;;14.82;13.18;;;;;;;13.61;27.24;100577.28;10361911;28;20231;-86
2022/04/26 11:40:03;;;;;;;17.87;12.87;;;;;;;12.02;28.33;100587.38;10344648;28;20205;-86
2022/04/26 11:45:07;;;;;;;13.67;11.30;;;;;;;12.45;27.56;100588.66;10330868;28;20245;-86
2022/04/26 11:50:14;;;;;;;11.93;10.73;;;;;;;12.39;27.18;100584.53;10328499;28;20603;-87
2022/04/26 11:55:30;;;;;;;16.65;13.05;;;;;;;13.31;26.79;100582.47;10325236;28;20194;-89
2022/04/26 12:00:33;;;;;;;17.53;13.53;;;;;;;12.51;28.86;100596.50;10329033;28;20198;-86
2022/04/26 12:05:37;;;;;;;16.08;13.73;;;;;;;11.87;29.44;100600.69;10326759;28;20257;-87
2022/04/26 12:10:39;;;;;;;18.90;14.13;;;;;;;12.11;29.31;100599.34;10330201;28;20599;-86
2022/04/26 12:15:42;;;;;;;14.98;13.40;;;;;;;12.11;28.14;100605.06;10322300;28;20202;-86
2022/04/26 12:21:03;;;;;;;16.67;12.60;;;;;;;12.01;28.47;100598.00;10332203;28;20598;-86
2022/04/26 12:26:10;;;;;;;15.05;12.90;;;;;;;12.31;28.53;100603.63;10310466;28;20276;-87
2022/04/26 12:31:23;;;;;;;15.10;13.47;;;;;;;12.10;29.21;100597.69;10320006;28;20598;-87
2022/04/26 12:36:26;;;;;;;17.38;13.52;;;;;;;11.78;31.06;100608.72;10315907;28;20252;-86
2022/04/26 12:41:45;;;;;;;17.50;15.30;;;;;;;12.22;31.80;100608.88;10341742;28;20252;-85
2022/04/26 12:52:32;;;;;;;19.80;15.60;;;;;;;12.02;33.39;100616.78;10342183;28;20201;-87
2022/04/26 12:57:48;;;;;;;18.00;14.80;;;;;;;12.81;31.73;100622.13;10307636;28;20194;-88
2022/04/26 13:02:53;;;;;;;14.87;12.87;;;;;;;11.12;32.52;100639.56;10319111;28;20272;-87
2022/04/26 13:14:08;;;;;;;11.80;10.23;;;;;;;11.24;32.94;100663.44;10329623;28;20205;-86
2022/04/26 13:19:30;;;;;;;10.53;8.77;;;;;;;9.68;35.89;100653.47;10319519;28;20272;-86
2022/04/26 13:24:33;;;;;;;9.63;8.63;;;;;;;10.62;34.39;100659.88;10307463;28;20304;-88
2022/04/26 13:29:36;;;;;;;9.90;8.33;;;;;;;11.31;32.73;100652.94;10355175;28;20233;-86
2022/04/26 13:34:39;;;;;;;10.20;8.90;;;;;;;11.57;34.03;100651.28;10322039;28;20218;-88
2022/04/26 13:39:45;;;;;;;10.60;9.47;;;;;;;12.19;33.03;100647.66;10315820;28;20602;-87
2022/04/26 13:44:49;;;;;;;9.67;8.67;;;;;;;10.68;34.08;100647.78;10306257;28;20253;-87
2022/04/26 13:49:52;;;;;;;10.53;9.43;;;;;;;11.18;33.57;100648.63;10318597;28;20989;-88
2022/04/26 13:54:55;;;;;;;12.13;10.93;;;;;;;10.53;34.93;100651.56;10313573;28;20221;-87
2022/04/26 13:59:57;;;;;;;12.50;11.13;;;;;;;10.52;34.00;100640.53;10351690;28;20205;-85
2022/04/26 14:05:00;;;;;;;15.77;14.17;;;;;;;11.72;33.34;100641.72;10336759;28;20232;-87
2022/04/26 14:10:03;;;;;;;18.93;16.40;;;;;;;11.00;34.19;100644.66;10339374;28;20204;-86
2022/04/26 14:25:47;;;;;;;18.80;16.40;;;;;;;12.38;32.71;100657.25;10326417;28;20291;-86
2022/04/26 14:30:50;;;;;;;19.83;17.10;;;;;;;12.13;32.76;100659.84;10318935;28;20472;-87
2022/04/26 14:35:52;;;;;;;19.07;17.07;;;;;;;11.29;33.66;100666.75;10328810;28;20202;-87
2022/04/26 14:40:54;;;;;;;18.90;16.03;;;;;;;11.78;32.97;100668.72;10351073;28;20182;-87
2022/04/26 14:45:56;;;;;;;19.43;16.40;;;;;;;12.37;32.16;100670.75;10346855;28;20625;-87
2022/04/26 14:50:59;;;;;;;23.30;19.37;;;;;;;10.25;37.01;100705.19;10317665;28;20358;-87
2022/04/26 14:56:01;;;;;;;13.97;10.50;;;;;;;9.75;36.02;100706.94;10316113;28;20295;-88
2022/04/26 15:01:03;;;;;;;6.80;5.70;;;;;;;8.16;36.73;100723.41;10311133;28;20229;-88
2022/04/26 15:06:06;;;;;;;6.10;5.40;;;;;;;9.15;34.81;100708.31;10314861;28;20950;-88
2022/04/26 15:11:10;;;;;;;9.73;5.43;;;;;;;7.90;38.47;100718.16;10313931;28;20241;-88
2022/04/26 15:21:33;;;;;;;12.73;8.33;;;;;;;9.29;37.99;100715.19;10316048;28;20268;-89
2022/04/26 15:26:36;;;;;;;9.03;7.83;;;;;;;9.15;38.71;100714.81;10315123;28;20249;-88
2022/04/26 15:31:38;;;;;;;9.43;7.67;;;;;;;8.68;39.74;100707.03;10303292;28;20229;-92
2022/04/26 15:36:45;;;;;;;9.20;6.83;;;;;;;7.95;41.29;100715.91;10302048;28;20206;-88
2022/04/26 15:41:47;;;;;;;10.33;7.37;;;;;;;9.29;39.74;100700.13;10346186;28;20252;-88
2022/04/26 15:46:52;;;;;;;7.40;6.70;;;;;;;9.48;38.28;100694.50;10350144;28;20303;-88
2022/04/26 15:51:57;;;;;;;8.37;7.30;;;;;;;9.15;38.74;100711.16;10313637;28;20604;-88
2022/04/26 15:56:59;;;;;;;8.50;7.40;;;;;;;9.42;37.50;100713.88;10321446;28;20307;-88
2022/04/26 16:02:01;;;;;;;8.87;8.03;;;;;;;8.44;41.87;100727.09;10357649;28;20194;-90
2022/04/26 16:07:04;;;;;;;9.30;8.03;;;;;;;9.61;39.08;100718.00;10318598;28;20266;-89
2022/04/26 16:22:48;;;;;;;15.50;13.40;;;;;;;10.13;38.64;100715.53;10344678;28;20238;-89
2022/04/26 16:27:50;;;;;;;17.43;14.83;;;;;;;10.10;38.71;100719.09;10334614;28;20614;-88
2022/04/26 16:33:01;;;;;;;18.50;16.10;;;;;;;10.08;39.15;100721.50;10344339;28;20214;-87
2022/04/26 16:38:03;;;;;;;19.23;16.43;;;;;;;9.85;39.19;100729.13;10332198;28;20472;-88
2022/04/26 16:43:07;;;;;;;17.30;14.50;;;;;;;9.95;39.38;100757.03;10322697;28;20642;-89
2022/04/26 16:48:10;;;;;;;16.17;13.60;;;;;;;9.67;40.37;100756.41;10322017;28;20222;-87
2022/04/26 16:53:12;;;;;;;17.33;15.10;;;;;;;10.37;39.03;100760.03;10328985;28;20566;-87
2022/04/26 16:58:16;;;;;;;15.20;13.70;;;;;;;10.52;37.99;100751.75;10330439;28;20210;-89
2022/04/26 17:03:18;;;;;;;15.23;13.67;;;;;;;10.64;37.34;100755.28;10341056;28;20251;-86
2022/04/26 17:08:21;;;;;;;19.47;15.20;;;;;;;10.31;39.29;100757.88;10356167;28;20222;-90
2022/04/26 17:13:23;;;;;;;16.70;15.10;;;;;;;10.81;37.88;100766.25;10340302;28;20260;-90
2022/04/26 17:18:26;;;;;;;17.57;15.33;;;;;;;10.39;38.54;100762.50;10313390;28;20627;-87
2022/04/26 17:23:28;;;;;;;16.33;14.50;;;;;;;10.23;38.96;100758.91;10319687;28;20280;-89
2022/04/26 17:28:33;;;;;;;18.27;16.03;;;;;;;10.87;38.41;100763.06;10333953;28;20214;-91
2022/04/26 17:33:37;;;;;;;17.60;15.53;;;;;;;10.34;38.86;100769.31;10319302;28;20591;-87
2022/04/26 17:38:40;;;;;;;15.57;13.87;;;;;;;9.91;39.01;100773.25;10303997;28;20190;-84
2022/04/26 17:43:42;;;;;;;16.83;14.73;;;;;;;10.33;38.79;100775.44;10340329;28;20303;-85
2022/04/26 17:48:45;;;;;;;15.90;14.17;;;;;;;10.06;39.08;100780.94;10336927;28;20225;-87
2022/04/26 17:59:15;;;;;;;17.30;15.40;;;;;;;10.32;39.48;100788.84;10320812;28;20189;-84
2022/04/26 18:04:18;;;;;;;18.47;15.23;;;;;;;10.27;39.29;100796.88;10338986;28;20644;-84
2022/04/26 18:09:20;;;;;;;17.23;15.27;;;;;;;10.32;39.21;100802.28;10322755;28;20496;-85
2022/04/26 18:14:22;;;;;;;17.43;15.67;;;;;;;10.43;38.51;100809.03;10337517;28;20269;-83
2022/04/26 18:19:25;;;;;;;18.73;16.10;;;;;;;10.32;38.95;100827.94;10308036;28;20234;-85
2022/04/26 18:24:27;;;;;;;17.67;15.87;;;;;;;10.00;40.04;100827.19;10314440;28;20201;-84
2022/04/26 18:29:38;;;;;;;18.83;16.80;;;;;;;10.22;39.48;100845.63;10338925;28;20703;-83
2022/04/26 18:34:40;;;;;;;20.07;17.97;;;;;;;10.03;39.79;100844.38;10335167;28;20245;-85
2022/04/26 18:39:43;;;;;;;21.10;18.90;;;;;;;9.89;39.93;100849.72;10340417;28;20201;-85
2022/04/26 18:44:45;;;;;;;19.37;17.47;;;;;;;9.78;39.80;100860.03;10332211;28;20243;-83
2022/04/26 18:49:48;;;;;;;21.63;19.40;;;;;;;10.01;39.69;100863.03;10376692;28;20664;-83
2022/04/26 18:54:51;;;;;;;19.63;17.57;;;;;;;9.97;39.55;100874.34;10337518;28;20202;-85
2022/04/26 18:59:59;;;;;;;22.17;19.83;;;;;;;9.58;40.20;100889.59;10346114;28;20213;-84
2022/04/26 19:05:03;;;;;;;25.77;22.43;;;;;;;9.98;39.47;100893.09;10337688;28;20237;-82
2022/04/26 19:15:26;;;;;;;29.03;20.80;;;;;;;9.77;39.36;100910.50;10339189;28;20601;-82
2022/04/26 19:20:30;;;;;;;23.73;19.73;;;;;;;9.56;39.03;100920.47;10298199;28;20231;-84
2022/04/26 19:25:32;;;;;;;25.03;21.13;;;;;;;9.41;39.24;100931.47;10299509;28;20253;-81
2022/04/26 19:30:35;;;;;;;28.73;23.57;;;;;;;9.36;40.20;100934.56;10299088;28;20619;-85
2022/04/26 19:35:38;;;;;;;24.27;20.60;;;;;;;9.21;39.86;100935.34;10319882;28;20593;-84
2022/04/26 19:40:40;;;;;;;25.27;21.90;;;;;;;9.33;38.99;100940.16;10367235;28;20202;-83
2022/04/26 19:45:43;;;;;;;28.33;23.30;;;;;;;9.29;39.59;100953.50;10344885;28;20253;-84
2022/04/26 19:56:06;;;;;;;22.30;19.40;;;;;;;8.66;41.69;100954.00;10311840;28;20217;-84
2022/04/26 20:01:08;;;;;;;23.87;21.40;;;;;;;9.58;39.97;100958.78;10348139;28;20263;-84
2022/04/26 20:06:11;;;;;;;24.97;21.57;;;;;;;9.30;40.29;100960.81;10324153;28;20559;-87
2022/04/26 20:11:14;;;;;;;26.23;22.20;;;;;;;9.23;40.64;100952.91;10314450;28;20225;-85
2022/04/26 20:21:28;;;;;;;28.37;22.83;;;;;;;9.49;39.65;100965.84;10158473;29;20243;-83
2022/04/26 20:31:51;;;;;;;31.80;24.80;;;;;;;9.52;39.75;100979.38;10153127;29;20205;-84
2022/04/26 20:36:54;;;;;;;33.47;27.03;;;;;;;9.40;40.41;100983.09;10161093;29;20259;-85
2022/04/26 20:41:56;;;;;;;38.33;27.97;;;;;;;9.61;39.69;100980.84;10169212;29;20229;-85
2022/04/26 20:46:58;;;;;;;38.87;29.50;;;;;;;9.48;39.43;100993.50;10153037;29;20581;-87
2022/04/26 20:52:01;;;;;;;34.10;29.10;;;;;;;9.26;40.15;100986.34;10152994;29;20205;-89
2022/04/26 20:57:04;;;;;;;36.30;29.27;;;;;;;9.36;39.23;100988.66;10153977;29;20253;-85
2022/04/26 21:02:06;;;;;;;37.20;28.57;;;;;;;9.40;39.15;100995.31;10137648;29;20326;-88
2022/04/26 21:07:09;;;;;;;29.83;24.73;;;;;;;9.57;38.45;101013.28;10167438;29;20304;-89
2022/04/26 21:12:11;;;;;;;28.53;24.83;;;;;;;8.96;39.58;101022.84;10161500;29;20551;-86
2022/04/26 21:17:14;;;;;;;22.90;19.13;;;;;;;8.98;38.31;101025.34;10152297;29;20285;-86
2022/04/26 21:22:16;;;;;;;15.00;13.47;;;;;;;8.42;38.31;101024.28;10150939;29;20288;-86
2022/04/26 21:27:18;;;;;;;11.97;10.73;;;;;;;8.71;36.33;101038.28;10168554;29;20311;-84
2022/04/26 21:32:21;;;;;;;10.93;9.60;;;;;;;8.37;36.42;101045.28;10154748;29;20256;-85
2022/04/26 21:37:23;;;;;;;13.03;10.90;;;;;;;7.87;39.10;101052.00;10160144;29;20197;-86
2022/04/26 21:42:25;;;;;;;12.50;10.83;;;;;;;8.30;37.72;101057.22;10168989;29;20224;-86
2022/04/26 21:47:28;;;;;;;15.60;11.50;;;;;;;8.40;38.01;101058.75;10155283;29;20252;-82
2022/04/26 21:52:34;;;;;;;13.17;10.67;;;;;;;8.20;38.14;101073.91;10154972;29;20189;-83
2022/04/26 21:57:36;;;;;;;11.87;10.47;;;;;;;8.33;37.28;101067.06;10151858;29;20197;-85
2022/04/26 22:02:40;;;;;;;10.53;9.27;;;;;;;8.58;36.98;101068.72;10161560;29;20267;-82
2022/04/26 22:07:42;;;;;;;14.20;10.17;;;;;;;8.51;37.13;101079.06;10193016;29;20244;-85
2022/04/26 22:12:44;;;;;;;11.70;9.80;;;;;;;8.60;37.11;101082.59;10193195;29;20219;-83
2022/04/26 22:17:46;;;;;;;13.30;9.10;;;;;;;8.23;37.00;101088.25;10194761;29;20690;-87
2022/04/26 22:22:48;;;;;;;12.63;9.80;;;;;;;8.27;37.83;101079.84;10200779;29;20592;-83
2022/04/26 22:27:51;;;;;;;11.67;8.90;;;;;;;8.52;36.98;101092.88;10198854;29;20279;-82
2022/04/26 22:32:53;;;;;;;11.50;9.17;;;;;;;8.41;36.10;101100.22;10184363;29;20223;-84
2022/04/26 22:37:55;;;;;;;12.10;8.93;;;;;;;8.31;36.27;101103.53;10196220;29;20259;-85
2022/04/26 22:42:57;;;;;;;8.87;7.80;;;;;;;7.92;36.38;101111.47;10160399;29;20196;-85
2022/04/26 22:47:59;;;;;;;10.17;8.47;;;;;;;8.09;35.85;101112.50;10177559;29;20684;-83
2022/04/26 22:53:01;;;;;;;10.67;7.63;;;;;;;7.80;36.63;101114.25;10159974;29;20271;-84
2022/04/26 22:58:03;;;;;;;10.00;7.80;;;;;;;7.75;35.62;101111.63;10175041;29;20245;-83
2022/04/26 23:03:06;;;;;;;10.70;7.47;;;;;;;7.84;36.47;101117.25;10163525;29;20230;-84
2022/04/26 23:08:08;;;;;;;12.33;8.17;;;;;;;7.90;37.19;101115.81;10158425;29;20216;-84
2022/04/26 23:13:10;;;;;;;9.47;7.83;;;;;;;7.84;37.74;101123.75;10174229;29;20248;-83
2022/04/26 23:18:12;;;;;;;22.73;8.10;;;;;;;8.09;36.45;101123.88;10158530;29;20232;-83
2022/04/26 23:23:14;;;;;;;7.90;7.07;;;;;;;8.39;36.03;101133.06;10173796;29;20193;-84
2022/04/26 23:28:17;;;;;;;10.93;7.63;;;;;;;7.94;35.95;101134.69;10172727;29;20381;-84
2022/04/26 23:33:19;;;;;;;7.67;6.33;;;;;;;8.19;34.81;101131.94;10158180;29;20197;-82
2022/04/26 23:38:21;;;;;;;7.83;6.80;;;;;;;7.97;34.85;101138.84;10173536;29;20236;-83
2022/04/26 23:43:23;;;;;;;8.93;6.73;;;;;;;7.76;35.35;101138.00;10141939;29;20220;-83
2022/04/26 23:48:25;;;;;;;8.23;6.43;;;;;;;7.66;35.36;101133.59;10141730;29;20499;-84
2022/04/26 23:53:27;;;;;;;9.23;6.30;;;;;;;7.90;34.63;101147.91;10141919;29;20510;-83
2022/04/26 23:58:30;;;;;;;7.13;6.23;;;;;;;7.97;34.28;101139.66;10173809;29;21189;-84
